sensor_id;sensor_type;location;lat;lon;timestamp;P1;durP1;ratioP1;P2;durP2;ratioP2
19566;SDS011;9930;49.240;8.548;2023-04-15T00:00:29;4.68;;;3.00;;
19566;SDS011;9930;49.240;8.548;2023-04-15T00:02:57;3.97;;;2.58;;
19566;SDS011;9930;49.240;8.548;2023-04-15T00:05:24;4.50;;;2.70;;
19566;SDS011;9930;49.240;8.548;2023-04-15T00:07:58;3.55;;;3.10;;
19566;SDS011;9930;49.240;8.548;2023-04-15T00:10:28;2.90;;;2.60;;
19566;SDS011;9930;49.240;8.548;2023-04-15T00:12:53;3.58;;;2.47;;
19566;SDS011;9930;49.240;8.548;2023-04-15T00:15:22;5.50;;;2.60;;
19566;SDS011;9930;49.240;8.548;2023-04-15T00:17:49;3.30;;;1.90;;
19566;SDS011;9930;49.240;8.548;2023-04-15T00:20:17;1.92;;;1.83;;
19566;SDS011;9930;49.240;8.548;2023-04-15T00:22:43;1.92;;;1.63;;
19566;SDS011;9930;49.240;8.548;2023-04-15T00:25:09;2.17;;;1.77;;
19566;SDS011;9930;49.240;8.548;2023-04-15T00:27:35;3.15;;;1.73;;
19566;SDS011;9930;49.240;8.548;2023-04-15T00:30:01;2.58;;;1.90;;
19566;SDS011;9930;49.240;8.548;2023-04-15T00:32:29;2.75;;;1.90;;
19566;SDS011;9930;49.240;8.548;2023-04-15T00:34:56;2.60;;;1.98;;
19566;SDS011;9930;49.240;8.548;2023-04-15T00:37:32;1.83;;;1.70;;
19566;SDS011;9930;49.240;8.548;2023-04-15T00:39:59;2.28;;;1.80;;
19566;SDS011;9930;49.240;8.548;2023-04-15T00:42:30;2.55;;;1.95;;
19566;SDS011;9930;49.240;8.548;2023-04-15T00:44:58;2.30;;;2.08;;
19566;SDS011;9930;49.240;8.548;2023-04-15T00:47:24;2.67;;;1.73;;
19566;SDS011;9930;49.240;8.548;2023-04-15T00:49:53;1.95;;;1.85;;
19566;SDS011;9930;49.240;8.548;2023-04-15T00:52:22;2.28;;;1.60;;
19566;SDS011;9930;49.240;8.548;2023-04-15T00:54:47;1.90;;;1.80;;
19566;SDS011;9930;49.240;8.548;2023-04-15T00:57:16;2.05;;;1.77;;
19566;SDS011;9930;49.240;8.548;2023-04-15T00:59:48;2.88;;;1.80;;
19566;SDS011;9930;49.240;8.548;2023-04-15T01:02:17;1.98;;;1.50;;
19566;SDS011;9930;49.240;8.548;2023-04-15T01:04:43;1.92;;;1.77;;
19566;SDS011;9930;49.240;8.548;2023-04-15T01:07:09;2.10;;;1.75;;
19566;SDS011;9930;49.240;8.548;2023-04-15T01:09:35;1.98;;;1.60;;
19566;SDS011;9930;49.240;8.548;2023-04-15T01:12:03;2.55;;;1.77;;
19566;SDS011;9930;49.240;8.548;2023-04-15T01:14:34;2.33;;;1.80;;
19566;SDS011;9930;49.240;8.548;2023-04-15T01:17:00;1.90;;;1.67;;
19566;SDS011;9930;49.240;8.548;2023-04-15T01:19:26;2.38;;;1.77;;
19566;SDS011;9930;49.240;8.548;2023-04-15T01:21:53;2.30;;;2.08;;
19566;SDS011;9930;49.240;8.548;2023-04-15T01:24:25;2.20;;;1.88;;
19566;SDS011;9930;49.240;8.548;2023-04-15T01:26:56;2.65;;;1.90;;
19566;SDS011;9930;49.240;8.548;2023-04-15T01:29:24;7.95;;;4.13;;
19566;SDS011;9930;49.240;8.548;2023-04-15T01:31:52;6.70;;;4.27;;
19566;SDS011;9930;49.240;8.548;2023-04-15T01:34:21;6.37;;;3.43;;
19566;SDS011;9930;49.240;8.548;2023-04-15T01:36:47;4.75;;;3.13;;
19566;SDS011;9930;49.240;8.548;2023-04-15T01:39:15;4.20;;;3.00;;
19566;SDS011;9930;49.240;8.548;2023-04-15T01:41:43;3.30;;;2.60;;
19566;SDS011;9930;49.240;8.548;2023-04-15T01:44:09;2.45;;;2.08;;
19566;SDS011;9930;49.240;8.548;2023-04-15T01:46:37;2.10;;;1.80;;
19566;SDS011;9930;49.240;8.548;2023-04-15T01:49:03;2.57;;;1.73;;
19566;SDS011;9930;49.240;8.548;2023-04-15T01:51:31;3.70;;;2.15;;
19566;SDS011;9930;49.240;8.548;2023-04-15T01:53:57;2.70;;;2.17;;
19566;SDS011;9930;49.240;8.548;2023-04-15T01:56:23;2.97;;;2.67;;
19566;SDS011;9930;49.240;8.548;2023-04-15T01:58:52;2.53;;;2.33;;
19566;SDS011;9930;49.240;8.548;2023-04-15T02:01:20;2.72;;;2.08;;
19566;SDS011;9930;49.240;8.548;2023-04-15T02:03:46;3.73;;;2.17;;
19566;SDS011;9930;49.240;8.548;2023-04-15T02:06:12;2.93;;;2.33;;
19566;SDS011;9930;49.240;8.548;2023-04-15T02:08:38;2.30;;;1.97;;
19566;SDS011;9930;49.240;8.548;2023-04-15T02:11:03;1.90;;;1.80;;
19566;SDS011;9930;49.240;8.548;2023-04-15T02:13:32;2.83;;;2.30;;
19566;SDS011;9930;49.240;8.548;2023-04-15T02:15:57;2.50;;;1.80;;
19566;SDS011;9930;49.240;8.548;2023-04-15T02:18:23;2.13;;;1.92;;
19566;SDS011;9930;49.240;8.548;2023-04-15T02:20:50;2.10;;;1.88;;
19566;SDS011;9930;49.240;8.548;2023-04-15T02:23:22;2.50;;;2.30;;
19566;SDS011;9930;49.240;8.548;2023-04-15T02:25:48;2.50;;;2.30;;
19566;SDS011;9930;49.240;8.548;2023-04-15T02:28:14;2.30;;;2.10;;
19566;SDS011;9930;49.240;8.548;2023-04-15T02:30:42;2.10;;;1.90;;
19566;SDS011;9930;49.240;8.548;2023-04-15T02:33:16;1.70;;;1.57;;
19566;SDS011;9930;49.240;8.548;2023-04-15T02:35:43;2.00;;;1.80;;
19566;SDS011;9930;49.240;8.548;2023-04-15T02:38:09;1.70;;;1.60;;
19566;SDS011;9930;49.240;8.548;2023-04-15T02:40:36;1.67;;;1.57;;
19566;SDS011;9930;49.240;8.548;2023-04-15T02:43:01;2.43;;;1.80;;
19566;SDS011;9930;49.240;8.548;2023-04-15T02:45:29;1.97;;;1.80;;
19566;SDS011;9930;49.240;8.548;2023-04-15T02:47:57;2.28;;;2.00;;
19566;SDS011;9930;49.240;8.548;2023-04-15T02:50:23;1.70;;;1.60;;
19566;SDS011;9930;49.240;8.548;2023-04-15T02:52:53;1.90;;;1.77;;
19566;SDS011;9930;49.240;8.548;2023-04-15T02:55:21;2.27;;;1.87;;
19566;SDS011;9930;49.240;8.548;2023-04-15T02:57:47;1.90;;;1.80;;
19566;SDS011;9930;49.240;8.548;2023-04-15T03:00:14;2.23;;;1.90;;
19566;SDS011;9930;49.240;8.548;2023-04-15T03:02:45;2.10;;;1.70;;
19566;SDS011;9930;49.240;8.548;2023-04-15T03:05:11;2.67;;;1.90;;
19566;SDS011;9930;49.240;8.548;2023-04-15T03:07:40;2.03;;;1.83;;
19566;SDS011;9930;49.240;8.548;2023-04-15T03:10:08;2.60;;;2.10;;
19566;SDS011;9930;49.240;8.548;2023-04-15T03:12:35;1.90;;;1.80;;
19566;SDS011;9930;49.240;8.548;2023-04-15T03:15:00;2.40;;;1.93;;
19566;SDS011;9930;49.240;8.548;2023-04-15T03:17:28;2.10;;;1.90;;
19566;SDS011;9930;49.240;8.548;2023-04-15T03:19:56;1.90;;;1.70;;
19566;SDS011;9930;49.240;8.548;2023-04-15T03:22:22;2.63;;;1.80;;
19566;SDS011;9930;49.240;8.548;2023-04-15T03:24:48;2.60;;;2.20;;
19566;SDS011;9930;49.240;8.548;2023-04-15T03:27:13;3.30;;;2.43;;
19566;SDS011;9930;49.240;8.548;2023-04-15T03:29:41;2.33;;;2.13;;
19566;SDS011;9930;49.240;8.548;2023-04-15T03:32:07;3.17;;;2.60;;
19566;SDS011;9930;49.240;8.548;2023-04-15T03:34:36;3.23;;;2.70;;
19566;SDS011;9930;49.240;8.548;2023-04-15T03:37:02;2.97;;;2.67;;
19566;SDS011;9930;49.240;8.548;2023-04-15T03:39:30;2.80;;;2.60;;
19566;SDS011;9930;49.240;8.548;2023-04-15T03:41:56;3.00;;;2.70;;
19566;SDS011;9930;49.240;8.548;2023-04-15T03:44:27;2.57;;;2.30;;
19566;SDS011;9930;49.240;8.548;2023-04-15T03:46:53;2.17;;;1.97;;
19566;SDS011;9930;49.240;8.548;2023-04-15T03:49:20;2.60;;;2.07;;
19566;SDS011;9930;49.240;8.548;2023-04-15T03:51:47;2.30;;;2.10;;
19566;SDS011;9930;49.240;8.548;2023-04-15T03:54:15;2.40;;;2.10;;
19566;SDS011;9930;49.240;8.548;2023-04-15T03:56:45;2.20;;;2.00;;
19566;SDS011;9930;49.240;8.548;2023-04-15T03:59:11;2.30;;;2.00;;
19566;SDS011;9930;49.240;8.548;2023-04-15T04:01:41;3.30;;;2.30;;
19566;SDS011;9930;49.240;8.548;2023-04-15T04:04:09;2.47;;;2.20;;
19566;SDS011;9930;49.240;8.548;2023-04-15T04:06:37;3.07;;;2.27;;
19566;SDS011;9930;49.240;8.548;2023-04-15T04:09:03;2.10;;;1.90;;
19566;SDS011;9930;49.240;8.548;2023-04-15T04:11:31;2.20;;;2.00;;
19566;SDS011;9930;49.240;8.548;2023-04-15T04:13:57;2.93;;;2.10;;
19566;SDS011;9930;49.240;8.548;2023-04-15T04:16:23;3.37;;;2.43;;
19566;SDS011;9930;49.240;8.548;2023-04-15T04:18:51;2.40;;;1.90;;
19566;SDS011;9930;49.240;8.548;2023-04-15T04:21:20;2.77;;;2.23;;
19566;SDS011;9930;49.240;8.548;2023-04-15T04:23:46;2.40;;;2.10;;
19566;SDS011;9930;49.240;8.548;2023-04-15T04:26:11;2.97;;;2.40;;
19566;SDS011;9930;49.240;8.548;2023-04-15T04:28:37;2.40;;;2.20;;
19566;SDS011;9930;49.240;8.548;2023-04-15T04:31:05;2.23;;;2.03;;
19566;SDS011;9930;49.240;8.548;2023-04-15T04:33:31;2.43;;;2.23;;
19566;SDS011;9930;49.240;8.548;2023-04-15T04:35:57;3.10;;;2.57;;
19566;SDS011;9930;49.240;8.548;2023-04-15T04:38:23;2.93;;;2.33;;
19566;SDS011;9930;49.240;8.548;2023-04-15T04:40:52;3.50;;;2.30;;
19566;SDS011;9930;49.240;8.548;2023-04-15T04:43:20;2.80;;;2.30;;
19566;SDS011;9930;49.240;8.548;2023-04-15T04:45:46;2.50;;;2.30;;
19566;SDS011;9930;49.240;8.548;2023-04-15T04:48:11;2.97;;;2.67;;
19566;SDS011;9930;49.240;8.548;2023-04-15T04:50:37;3.83;;;2.50;;
19566;SDS011;9930;49.240;8.548;2023-04-15T04:53:05;3.10;;;2.77;;
19566;SDS011;9930;49.240;8.548;2023-04-15T04:55:33;4.97;;;2.93;;
19566;SDS011;9930;49.240;8.548;2023-04-15T04:58:01;2.83;;;2.50;;
19566;SDS011;9930;49.240;8.548;2023-04-15T05:00:29;3.10;;;2.70;;
19566;SDS011;9930;49.240;8.548;2023-04-15T05:03:00;2.63;;;2.43;;
19566;SDS011;9930;49.240;8.548;2023-04-15T05:05:25;3.80;;;2.80;;
19566;SDS011;9930;49.240;8.548;2023-04-15T05:07:51;2.50;;;2.30;;
19566;SDS011;9930;49.240;8.548;2023-04-15T05:10:17;3.00;;;2.67;;
19566;SDS011;9930;49.240;8.548;2023-04-15T05:12:42;3.30;;;2.60;;
19566;SDS011;9930;49.240;8.548;2023-04-15T05:15:10;2.50;;;2.25;;
19566;SDS011;9930;49.240;8.548;2023-04-15T05:17:38;4.17;;;2.20;;
19566;SDS011;9930;49.240;8.548;2023-04-15T05:20:09;2.40;;;2.13;;
19566;SDS011;9930;49.240;8.548;2023-04-15T05:22:38;2.47;;;2.27;;
19566;SDS011;9930;49.240;8.548;2023-04-15T05:25:08;5.17;;;3.80;;
19566;SDS011;9930;49.240;8.548;2023-04-15T05:27:34;7.77;;;5.50;;
19566;SDS011;9930;49.240;8.548;2023-04-15T05:30:00;7.20;;;5.60;;
19566;SDS011;9930;49.240;8.548;2023-04-15T05:32:28;9.53;;;6.80;;
19566;SDS011;9930;49.240;8.548;2023-04-15T05:34:53;9.40;;;6.77;;
19566;SDS011;9930;49.240;8.548;2023-04-15T05:37:23;7.93;;;5.30;;
19566;SDS011;9930;49.240;8.548;2023-04-15T05:39:53;9.03;;;5.90;;
19566;SDS011;9930;49.240;8.548;2023-04-15T05:42:22;7.03;;;4.87;;
19566;SDS011;9930;49.240;8.548;2023-04-15T05:44:48;5.30;;;4.67;;
19566;SDS011;9930;49.240;8.548;2023-04-15T05:47:14;6.30;;;4.10;;
19566;SDS011;9930;49.240;8.548;2023-04-15T05:49:42;3.77;;;3.37;;
19566;SDS011;9930;49.240;8.548;2023-04-15T05:52:08;3.93;;;3.17;;
19566;SDS011;9930;49.240;8.548;2023-04-15T05:54:35;3.85;;;2.90;;
19566;SDS011;9930;49.240;8.548;2023-04-15T05:57:01;3.80;;;3.50;;
19566;SDS011;9930;49.240;8.548;2023-04-15T05:59:27;3.65;;;3.30;;
19566;SDS011;9930;49.240;8.548;2023-04-15T06:01:56;3.83;;;3.43;;
19566;SDS011;9930;49.240;8.548;2023-04-15T06:04:24;3.42;;;3.13;;
19566;SDS011;9930;49.240;8.548;2023-04-15T06:06:51;3.92;;;3.05;;
19566;SDS011;9930;49.240;8.548;2023-04-15T06:09:20;4.32;;;3.58;;
19566;SDS011;9930;49.240;8.548;2023-04-15T06:11:45;5.30;;;4.80;;
19566;SDS011;9930;49.240;8.548;2023-04-15T06:14:11;6.90;;;6.20;;
19566;SDS011;9930;49.240;8.548;2023-04-15T06:16:37;6.60;;;5.90;;
19566;SDS011;9930;49.240;8.548;2023-04-15T06:19:07;5.95;;;5.22;;
19566;SDS011;9930;49.240;8.548;2023-04-15T06:21:36;5.13;;;4.63;;
19566;SDS011;9930;49.240;8.548;2023-04-15T06:24:02;4.45;;;4.05;;
19566;SDS011;9930;49.240;8.548;2023-04-15T06:26:28;4.50;;;4.05;;
19566;SDS011;9930;49.240;8.548;2023-04-15T06:28:54;4.78;;;4.22;;
19566;SDS011;9930;49.240;8.548;2023-04-15T06:31:26;5.78;;;4.50;;
19566;SDS011;9930;49.240;8.548;2023-04-15T06:33:51;5.07;;;4.57;;
19566;SDS011;9930;49.240;8.548;2023-04-15T06:36:20;4.43;;;3.80;;
19566;SDS011;9930;49.240;8.548;2023-04-15T06:38:45;4.07;;;3.78;;
19566;SDS011;9930;49.240;8.548;2023-04-15T06:41:11;4.15;;;3.80;;
19566;SDS011;9930;49.240;8.548;2023-04-15T06:43:39;3.88;;;3.58;;
19566;SDS011;9930;49.240;8.548;2023-04-15T06:46:10;4.22;;;3.75;;
19566;SDS011;9930;49.240;8.548;2023-04-15T06:48:36;4.03;;;3.45;;
19566;SDS011;9930;49.240;8.548;2023-04-15T06:51:03;4.63;;;3.45;;
19566;SDS011;9930;49.240;8.548;2023-04-15T06:53:30;4.03;;;3.63;;
19566;SDS011;9930;49.240;8.548;2023-04-15T06:55:57;3.67;;;3.38;;
19566;SDS011;9930;49.240;8.548;2023-04-15T06:58:23;4.03;;;3.22;;
19566;SDS011;9930;49.240;8.548;2023-04-15T07:00:58;4.15;;;3.42;;
19566;SDS011;9930;49.240;8.548;2023-04-15T07:03:27;4.13;;;3.65;;
19566;SDS011;9930;49.240;8.548;2023-04-15T07:05:53;5.28;;;4.30;;
19566;SDS011;9930;49.240;8.548;2023-04-15T07:08:18;4.80;;;4.30;;
19566;SDS011;9930;49.240;8.548;2023-04-15T07:10:50;5.75;;;4.75;;
19566;SDS011;9930;49.240;8.548;2023-04-15T07:13:18;4.80;;;4.30;;
19566;SDS011;9930;49.240;8.548;2023-04-15T07:15:44;5.07;;;4.57;;
19566;SDS011;9930;49.240;8.548;2023-04-15T07:18:10;5.22;;;4.30;;
19566;SDS011;9930;49.240;8.548;2023-04-15T07:20:36;4.75;;;4.35;;
19566;SDS011;9930;49.240;8.548;2023-04-15T07:23:03;5.55;;;5.00;;
19566;SDS011;9930;49.240;8.548;2023-04-15T07:25:31;5.13;;;4.63;;
19566;SDS011;9930;49.240;8.548;2023-04-15T07:27:56;5.78;;;5.20;;
19566;SDS011;9930;49.240;8.548;2023-04-15T07:30:26;5.78;;;5.28;;
19566;SDS011;9930;49.240;8.548;2023-04-15T07:32:54;7.35;;;4.97;;
19566;SDS011;9930;49.240;8.548;2023-04-15T07:35:20;5.93;;;5.15;;
19566;SDS011;9930;49.240;8.548;2023-04-15T07:37:46;5.50;;;4.80;;
19566;SDS011;9930;49.240;8.548;2023-04-15T07:40:15;5.38;;;4.68;;
19566;SDS011;9930;49.240;8.548;2023-04-15T07:42:40;6.18;;;4.95;;
19566;SDS011;9930;49.240;8.548;2023-04-15T07:45:07;5.82;;;4.90;;
19566;SDS011;9930;49.240;8.548;2023-04-15T07:47:36;6.65;;;4.78;;
19566;SDS011;9930;49.240;8.548;2023-04-15T07:50:01;5.30;;;4.72;;
19566;SDS011;9930;49.240;8.548;2023-04-15T07:52:30;5.78;;;4.70;;
19566;SDS011;9930;49.240;8.548;2023-04-15T07:54:59;5.05;;;4.55;;
19566;SDS011;9930;49.240;8.548;2023-04-15T07:57:24;4.97;;;4.57;;
19566;SDS011;9930;49.240;8.548;2023-04-15T07:59:50;5.57;;;4.80;;
19566;SDS011;9930;49.240;8.548;2023-04-15T08:02:16;4.68;;;4.10;;
19566;SDS011;9930;49.240;8.548;2023-04-15T08:04:42;6.15;;;4.20;;
19566;SDS011;9930;49.240;8.548;2023-04-15T08:07:07;4.75;;;4.35;;
19566;SDS011;9930;49.240;8.548;2023-04-15T08:09:33;4.88;;;4.38;;
19566;SDS011;9930;49.240;8.548;2023-04-15T08:12:01;5.18;;;4.22;;
19566;SDS011;9930;49.240;8.548;2023-04-15T08:14:31;5.07;;;4.28;;
19566;SDS011;9930;49.240;8.548;2023-04-15T08:16:57;4.35;;;3.92;;
19566;SDS011;9930;49.240;8.548;2023-04-15T08:19:25;4.80;;;4.40;;
19566;SDS011;9930;49.240;8.548;2023-04-15T08:21:51;5.03;;;4.13;;
19566;SDS011;9930;49.240;8.548;2023-04-15T08:24:20;5.30;;;4.35;;
19566;SDS011;9930;49.240;8.548;2023-04-15T08:26:50;4.20;;;3.88;;
19566;SDS011;9930;49.240;8.548;2023-04-15T08:29:17;4.10;;;3.70;;
19566;SDS011;9930;49.240;8.548;2023-04-15T08:31:43;5.50;;;4.32;;
19566;SDS011;9930;49.240;8.548;2023-04-15T08:34:12;5.00;;;4.60;;
19566;SDS011;9930;49.240;8.548;2023-04-15T08:36:43;5.38;;;4.88;;
19566;SDS011;9930;49.240;8.548;2023-04-15T08:39:11;4.88;;;4.35;;
19566;SDS011;9930;49.240;8.548;2023-04-15T08:41:43;5.10;;;4.60;;
19566;SDS011;9930;49.240;8.548;2023-04-15T08:44:12;5.20;;;4.70;;
19566;SDS011;9930;49.240;8.548;2023-04-15T08:46:41;6.03;;;4.50;;
19566;SDS011;9930;49.240;8.548;2023-04-15T08:49:10;6.65;;;4.43;;
19566;SDS011;9930;49.240;8.548;2023-04-15T08:51:39;5.50;;;4.80;;
19566;SDS011;9930;49.240;8.548;2023-04-15T08:54:06;5.65;;;5.13;;
19566;SDS011;9930;49.240;8.548;2023-04-15T08:56:38;4.80;;;4.30;;
19566;SDS011;9930;49.240;8.548;2023-04-15T08:59:04;5.63;;;4.75;;
19566;SDS011;9930;49.240;8.548;2023-04-15T09:01:31;4.95;;;4.53;;
19566;SDS011;9930;49.240;8.548;2023-04-15T09:03:58;6.00;;;5.10;;
19566;SDS011;9930;49.240;8.548;2023-04-15T09:06:26;7.22;;;5.25;;
19566;SDS011;9930;49.240;8.548;2023-04-15T09:08:53;5.47;;;4.97;;
19566;SDS011;9930;49.240;8.548;2023-04-15T09:11:21;6.95;;;5.22;;
19566;SDS011;9930;49.240;8.548;2023-04-15T09:13:49;6.15;;;5.18;;
19566;SDS011;9930;49.240;8.548;2023-04-15T09:16:16;5.88;;;4.93;;
19566;SDS011;9930;49.240;8.548;2023-04-15T09:18:42;5.97;;;4.80;;
19566;SDS011;9930;49.240;8.548;2023-04-15T09:23:40;5.63;;;4.60;;
19566;SDS011;9930;49.240;8.548;2023-04-15T09:26:33;6.82;;;4.68;;
19566;SDS011;9930;49.240;8.548;2023-04-15T09:29:04;5.68;;;5.15;;
19566;SDS011;9930;49.240;8.548;2023-04-15T09:31:35;6.60;;;5.30;;
19566;SDS011;9930;49.240;8.548;2023-04-15T09:34:01;5.72;;;4.82;;
19566;SDS011;9930;49.240;8.548;2023-04-15T09:39:14;5.95;;;5.20;;
19566;SDS011;9930;49.240;8.548;2023-04-15T09:41:42;5.97;;;5.47;;
19566;SDS011;9930;49.240;8.548;2023-04-15T09:44:24;6.68;;;6.00;;
19566;SDS011;9930;49.240;8.548;2023-04-15T09:46:51;6.07;;;5.47;;
19566;SDS011;9930;49.240;8.548;2023-04-15T09:49:17;6.47;;;5.80;;
19566;SDS011;9930;49.240;8.548;2023-04-15T09:51:43;7.28;;;5.50;;
19566;SDS011;9930;49.240;8.548;2023-04-15T09:54:20;5.78;;;5.15;;
19566;SDS011;9930;49.240;8.548;2023-04-15T09:56:45;7.18;;;5.85;;
19566;SDS011;9930;49.240;8.548;2023-04-15T09:59:14;6.38;;;5.88;;
19566;SDS011;9930;49.240;8.548;2023-04-15T10:01:39;7.05;;;5.97;;
19566;SDS011;9930;49.240;8.548;2023-04-15T10:04:09;6.10;;;5.50;;
19566;SDS011;9930;49.240;8.548;2023-04-15T10:06:38;6.82;;;6.13;;
19566;SDS011;9930;49.240;8.548;2023-04-15T10:09:04;6.15;;;5.50;;
19566;SDS011;9930;49.240;8.548;2023-04-15T10:11:31;6.97;;;5.40;;
19566;SDS011;9930;49.240;8.548;2023-04-15T10:13:59;5.30;;;4.80;;
19566;SDS011;9930;49.240;8.548;2023-04-15T10:16:28;5.65;;;5.15;;
19566;SDS011;9930;49.240;8.548;2023-04-15T10:19:03;5.35;;;4.82;;
19566;SDS011;9930;49.240;8.548;2023-04-15T10:21:33;6.25;;;4.90;;
19566;SDS011;9930;49.240;8.548;2023-04-15T10:24:01;5.22;;;4.70;;
19566;SDS011;9930;49.240;8.548;2023-04-15T10:26:28;4.55;;;4.15;;
19566;SDS011;9930;49.240;8.548;2023-04-15T10:28:56;5.00;;;4.25;;
19566;SDS011;9930;49.240;8.548;2023-04-15T10:31:23;5.05;;;4.53;;
19566;SDS011;9930;49.240;8.548;2023-04-15T10:33:50;4.22;;;3.83;;
19566;SDS011;9930;49.240;8.548;2023-04-15T10:36:17;4.32;;;3.80;;
19566;SDS011;9930;49.240;8.548;2023-04-15T10:38:44;4.97;;;4.30;;
19566;SDS011;9930;49.240;8.548;2023-04-15T10:41:11;5.28;;;3.60;;
19566;SDS011;9930;49.240;8.548;2023-04-15T10:43:50;4.20;;;3.40;;
19566;SDS011;9930;49.240;8.548;2023-04-15T10:46:21;3.47;;;3.15;;
19566;SDS011;9930;49.240;8.548;2023-04-15T10:49:05;3.50;;;3.20;;
19566;SDS011;9930;49.240;8.548;2023-04-15T10:51:42;4.05;;;3.03;;
19566;SDS011;9930;49.240;8.548;2023-04-15T10:54:30;4.40;;;3.40;;
19566;SDS011;9930;49.240;8.548;2023-04-15T10:59:29;4.70;;;3.70;;
19566;SDS011;9930;49.240;8.548;2023-04-15T11:02:03;4.05;;;3.50;;
19566;SDS011;9930;49.240;8.548;2023-04-15T11:07:46;4.38;;;3.97;;
19566;SDS011;9930;49.240;8.548;2023-04-15T11:12:56;3.45;;;3.13;;
19566;SDS011;9930;49.240;8.548;2023-04-15T11:15:24;3.90;;;3.30;;
19566;SDS011;9930;49.240;8.548;2023-04-15T11:18:22;4.95;;;3.47;;
19566;SDS011;9930;49.240;8.548;2023-04-15T11:20:58;3.95;;;3.65;;
19566;SDS011;9930;49.240;8.548;2023-04-15T11:26:08;3.38;;;3.10;;
19566;SDS011;9930;49.240;8.548;2023-04-15T11:28:36;3.97;;;3.58;;
19566;SDS011;9930;49.240;8.548;2023-04-15T11:31:06;3.42;;;2.70;;
19566;SDS011;9930;49.240;8.548;2023-04-15T11:33:38;3.40;;;3.05;;
19566;SDS011;9930;49.240;8.548;2023-04-15T11:36:17;3.78;;;3.42;;
19566;SDS011;9930;49.240;8.548;2023-04-15T11:38:43;4.07;;;3.67;;
19566;SDS011;9930;49.240;8.548;2023-04-15T11:41:11;4.10;;;3.70;;
19566;SDS011;9930;49.240;8.548;2023-04-15T11:43:37;4.18;;;3.78;;
19566;SDS011;9930;49.240;8.548;2023-04-15T11:46:03;3.70;;;3.40;;
19566;SDS011;9930;49.240;8.548;2023-04-15T11:48:33;4.63;;;3.80;;
19566;SDS011;9930;49.240;8.548;2023-04-15T11:51:06;4.28;;;3.47;;
19566;SDS011;9930;49.240;8.548;2023-04-15T11:58:51;3.10;;;2.60;;
19566;SDS011;9930;49.240;8.548;2023-04-15T12:01:29;2.40;;;2.20;;
19566;SDS011;9930;49.240;8.548;2023-04-15T12:04:14;2.42;;;2.17;;
19566;SDS011;9930;49.240;8.548;2023-04-15T12:06:46;2.20;;;2.00;;
19566;SDS011;9930;49.240;8.548;2023-04-15T12:09:16;2.65;;;2.03;;
19566;SDS011;9930;49.240;8.548;2023-04-15T12:11:46;1.73;;;1.50;;
19566;SDS011;9930;49.240;8.548;2023-04-15T12:17:01;1.55;;;1.38;;
19566;SDS011;9930;49.240;8.548;2023-04-15T12:19:31;2.25;;;1.80;;
19566;SDS011;9930;49.240;8.548;2023-04-15T12:22:05;1.80;;;1.70;;
19566;SDS011;9930;49.240;8.548;2023-04-15T12:24:44;2.55;;;1.98;;
19566;SDS011;9930;49.240;8.548;2023-04-15T12:27:12;1.70;;;1.60;;
19566;SDS011;9930;49.240;8.548;2023-04-15T12:29:42;1.98;;;1.70;;
19566;SDS011;9930;49.240;8.548;2023-04-15T12:32:09;1.80;;;1.70;;
19566;SDS011;9930;49.240;8.548;2023-04-15T12:37:07;2.10;;;1.92;;
19566;SDS011;9930;49.240;8.548;2023-04-15T12:39:36;2.50;;;2.30;;
19566;SDS011;9930;49.240;8.548;2023-04-15T12:42:06;1.92;;;1.80;;
19566;SDS011;9930;49.240;8.548;2023-04-15T12:44:36;2.53;;;2.15;;
19566;SDS011;9930;49.240;8.548;2023-04-15T12:47:03;2.97;;;2.25;;
19566;SDS011;9930;49.240;8.548;2023-04-15T12:49:29;2.83;;;2.40;;
19566;SDS011;9930;49.240;8.548;2023-04-15T12:51:57;2.42;;;2.20;;
19566;SDS011;9930;49.240;8.548;2023-04-15T12:54:28;2.50;;;1.92;;
19566;SDS011;9930;49.240;8.548;2023-04-15T12:56:56;2.22;;;2.10;;
19566;SDS011;9930;49.240;8.548;2023-04-15T12:59:25;2.58;;;2.03;;
19566;SDS011;9930;49.240;8.548;2023-04-15T13:01:53;2.05;;;1.95;;
19566;SDS011;9930;49.240;8.548;2023-04-15T13:04:21;2.50;;;1.98;;
19566;SDS011;9930;49.240;8.548;2023-04-15T13:06:49;2.35;;;2.15;;
19566;SDS011;9930;49.240;8.548;2023-04-15T13:09:15;2.15;;;1.95;;
19566;SDS011;9930;49.240;8.548;2023-04-15T13:11:43;2.58;;;2.00;;
19566;SDS011;9930;49.240;8.548;2023-04-15T13:14:09;3.13;;;2.10;;
19566;SDS011;9930;49.240;8.548;2023-04-15T13:16:37;3.05;;;2.13;;
19566;SDS011;9930;49.240;8.548;2023-04-15T13:19:03;2.25;;;1.90;;
19566;SDS011;9930;49.240;8.548;2023-04-15T13:21:32;2.50;;;2.00;;
19566;SDS011;9930;49.240;8.548;2023-04-15T13:24:00;1.88;;;1.77;;
19566;SDS011;9930;49.240;8.548;2023-04-15T13:26:26;3.00;;;2.20;;
19566;SDS011;9930;49.240;8.548;2023-04-15T13:28:52;2.40;;;2.20;;
19566;SDS011;9930;49.240;8.548;2023-04-15T13:31:17;2.17;;;1.98;;
19566;SDS011;9930;49.240;8.548;2023-04-15T13:33:43;2.50;;;1.70;;
19566;SDS011;9930;49.240;8.548;2023-04-15T13:36:11;1.60;;;1.50;;
19566;SDS011;9930;49.240;8.548;2023-04-15T13:38:37;2.15;;;1.77;;
19566;SDS011;9930;49.240;8.548;2023-04-15T13:41:03;2.00;;;1.73;;
19566;SDS011;9930;49.240;8.548;2023-04-15T13:43:31;2.05;;;1.73;;
19566;SDS011;9930;49.240;8.548;2023-04-15T13:45:58;2.10;;;1.90;;
19566;SDS011;9930;49.240;8.548;2023-04-15T13:48:27;2.88;;;1.92;;
19566;SDS011;9930;49.240;8.548;2023-04-15T13:50:55;1.80;;;1.70;;
19566;SDS011;9930;49.240;8.548;2023-04-15T13:53:21;1.70;;;1.60;;
19566;SDS011;9930;49.240;8.548;2023-04-15T13:55:47;1.42;;;1.33;;
19566;SDS011;9930;49.240;8.548;2023-04-15T13:58:12;2.08;;;1.40;;
19566;SDS011;9930;49.240;8.548;2023-04-15T14:00:41;1.02;;;1.02;;
19566;SDS011;9930;49.240;8.548;2023-04-15T14:03:06;1.10;;;1.00;;
19566;SDS011;9930;49.240;8.548;2023-04-15T14:05:33;1.38;;;1.10;;
19566;SDS011;9930;49.240;8.548;2023-04-15T14:07:58;1.20;;;1.10;;
19566;SDS011;9930;49.240;8.548;2023-04-15T14:10:25;1.25;;;0.90;;
19566;SDS011;9930;49.240;8.548;2023-04-15T14:12:55;0.90;;;0.90;;
19566;SDS011;9930;49.240;8.548;2023-04-15T14:15:21;1.02;;;0.90;;
19566;SDS011;9930;49.240;8.548;2023-04-15T14:17:49;0.90;;;0.90;;
19566;SDS011;9930;49.240;8.548;2023-04-15T14:20:18;0.73;;;0.73;;
19566;SDS011;9930;49.240;8.548;2023-04-15T14:22:43;1.15;;;1.05;;
19566;SDS011;9930;49.240;8.548;2023-04-15T14:25:11;0.85;;;0.85;;
19566;SDS011;9930;49.240;8.548;2023-04-15T14:27:37;0.98;;;0.98;;
19566;SDS011;9930;49.240;8.548;2023-04-15T14:30:03;0.88;;;0.80;;
19566;SDS011;9930;49.240;8.548;2023-04-15T14:32:29;1.30;;;0.95;;
19566;SDS011;9930;49.240;8.548;2023-04-15T14:34:55;0.95;;;0.85;;
19566;SDS011;9930;49.240;8.548;2023-04-15T14:37:23;1.13;;;0.90;;
19566;SDS011;9930;49.240;8.548;2023-04-15T14:39:52;0.85;;;0.80;;
19566;SDS011;9930;49.240;8.548;2023-04-15T14:42:17;1.38;;;0.75;;
19566;SDS011;9930;49.240;8.548;2023-04-15T14:44:43;1.00;;;0.90;;
19566;SDS011;9930;49.240;8.548;2023-04-15T14:47:09;1.40;;;1.30;;
19566;SDS011;9930;49.240;8.548;2023-04-15T14:49:40;1.20;;;1.10;;
19566;SDS011;9930;49.240;8.548;2023-04-15T14:52:05;1.27;;;1.10;;
19566;SDS011;9930;49.240;8.548;2023-04-15T14:54:31;1.40;;;1.10;;
19566;SDS011;9930;49.240;8.548;2023-04-15T14:56:59;2.35;;;1.30;;
19566;SDS011;9930;49.240;8.548;2023-04-15T14:59:32;1.73;;;1.15;;
19566;SDS011;9930;49.240;8.548;2023-04-15T15:02:01;2.80;;;1.00;;
19566;SDS011;9930;49.240;8.548;2023-04-15T15:04:26;1.30;;;1.20;;
19566;SDS011;9930;49.240;8.548;2023-04-15T15:06:56;1.10;;;1.10;;
19566;SDS011;9930;49.240;8.548;2023-04-15T15:09:22;1.50;;;1.40;;
19566;SDS011;9930;49.240;8.548;2023-04-15T15:11:49;1.50;;;1.40;;
19566;SDS011;9930;49.240;8.548;2023-04-15T15:14:15;1.92;;;1.40;;
19566;SDS011;9930;49.240;8.548;2023-04-15T15:16:42;1.73;;;1.63;;
19566;SDS011;9930;49.240;8.548;2023-04-15T15:19:08;1.98;;;1.63;;
19566;SDS011;9930;49.240;8.548;2023-04-15T15:21:34;1.67;;;1.58;;
19566;SDS011;9930;49.240;8.548;2023-04-15T15:24:00;1.77;;;1.58;;
19566;SDS011;9930;49.240;8.548;2023-04-15T15:26:25;2.30;;;1.55;;
19566;SDS011;9930;49.240;8.548;2023-04-15T15:28:58;1.63;;;1.52;;
19566;SDS011;9930;49.240;8.548;2023-04-15T15:31:23;2.08;;;1.98;;